Time;durP1;ratioP1;P1;durP2;ratioP2;P2;SDS_P1;SDS_P2;PMS_P1;PMS_P2;Temp;Humidity;BMP_temperature;BMP_pressure;BME280_temperature;BME280_humidity;BME280_pressure;Samples;Min_cycle;Max_cycle;Signal;HPM_P1;HPM_P2
2021/10/26 00:00:18;;;;;;;;;;;;;;;;;;1015380;29;859;-16
2021/10/26 00:00:48;;;;;;;;;;;;;;;;;;1015737;29;796;-17
2021/10/26 00:01:19;;;;;;;;;;;;;;;;;;1015475;29;871;-17
2021/10/26 00:01:49;;;;;;;;;;;;;;;;;;1015461;29;1336;-16
2021/10/26 00:02:20;;;;;;;;;;;;;;;;;;1015564;29;858;-16
2021/10/26 00:02:50;;;;;;;;;;;;;;;;;;1015568;29;844;-17
2021/10/26 00:03:20;;;;;;;;;;;;;;;;;;1015442;29;899;-16
2021/10/26 00:03:51;;;;;;;;;;;;;;;;;;1015649;29;985;-16
2021/10/26 00:04:21;;;;;;;;;;;;;;;;;;1015377;29;874;-17
2021/10/26 00:04:51;;;;;;;;;;;;;;;;;;1015684;29;901;-16
2021/10/26 00:05:22;;;;;;;;;;;;;;;;;;1015457;29;965;-16
2021/10/26 00:05:52;;;;;;;;;;;;;;;;;;1015623;29;886;-17
2021/10/26 00:06:23;;;;;;;;;;;;;;;;;;1015463;29;859;-16
2021/10/26 00:06:53;;;;;;;;;;;;;;;;;;1015363;29;839;-16
2021/10/26 00:07:23;;;;;;;;;;;;;;;;;;1015430;29;1341;-16
2021/10/26 00:07:54;;;;;;;;;;;;;;;;;;1015641;29;803;-16
2021/10/26 00:08:24;;;;;;;;;;;;;;;;;;1015038;29;1356;-16
2021/10/26 00:08:56;;;;;;;;;;;;;;;;;;1015696;29;863;-16
2021/10/26 00:09:26;;;;;;;;;;;;;;;;;;1014575;29;1050;-16
2021/10/26 00:09:56;;;;;;;;;;;;;;;;;;1014980;29;962;-17
2021/10/26 00:10:27;;;;;;;;;;;;;;;;;;1014700;29;902;-16
2021/10/26 00:10:57;;;;;;;;;;;;;;;;;;1014846;29;899;-16
2021/10/26 00:11:28;;;;;;;;;;;;;;;;;;1018763;29;1049;-16
2021/10/26 00:11:59;;;;;;;;;;;;;;;;;;1018752;29;1162;-16
2021/10/26 00:12:29;;;;;;;;;;;;;;;;;;1018605;29;990;-16
2021/10/26 00:13:00;;;;;;;;;;;;;;;;;;1018731;29;1391;-17
2021/10/26 00:13:30;;;;;;;;;;;;;;;;;;1015207;29;1435;-16
2021/10/26 00:14:00;;;;;;;;;;;;;;;;;;1015461;29;1087;-16
2021/10/26 00:14:31;;;;;;;;;;;;;;;;;;1015482;29;1665;-17
2021/10/26 00:15:02;;;;;;;;;;;;;;;;;;1015520;29;808;-16
2021/10/26 00:15:33;;;;;;;;;;;;;;;;;;1015510;29;1071;-17
2021/10/26 00:16:04;;;;;;;;;;;;;;;;;;1015314;29;1467;-16
2021/10/26 00:16:34;;;;;;;;;;;;;;;;;;1015326;29;1560;-16
2021/10/26 00:17:04;;;;;;;;;;;;;;;;;;1015530;29;844;-17
2021/10/26 00:17:35;;;;;;;;;;;;;;;;;;1015301;29;2030;-16
2021/10/26 00:18:05;;;;;;;;;;;;;;;;;;1015522;29;962;-16
2021/10/26 00:18:35;;;;;;;;;;;;;;;;;;1015256;29;819;-17
2021/10/26 00:19:06;;;;;;;;;;;;;;;;;;1015478;29;839;-16
2021/10/26 00:19:36;;;;;;;;;;;;;;;;;;1015564;29;785;-16
2021/10/26 00:20:07;;;;;;;;;;;;;;;;;;1015450;29;1447;-16
2021/10/26 00:20:38;;;;;;;;;;;;;;;;;;1015435;29;851;-16
2021/10/26 00:21:08;;;;;;;;;;;;;;;;;;1015554;29;797;-16
2021/10/26 00:21:39;;;;;;;;;;;;;;;;;;1015378;29;922;-16
2021/10/26 00:22:10;;;;;;;;;;;;;;;;;;1015630;29;953;-16
2021/10/26 00:22:40;;;;;;;;;;;;;;;;;;1015326;29;898;-16
2021/10/26 00:23:10;;;;;;;;;;;;;;;;;;1015569;29;997;-16
2021/10/26 00:23:41;;;;;;;;;;;;;;;;;;1015377;29;902;-16
2021/10/26 00:24:11;;;;;;;;;;;;;;;;;;1015447;29;1412;-16
2021/10/26 00:24:42;;;;;;;;;;;;;;;;;;1015323;29;985;-16
2021/10/26 00:25:12;;;;;;;;;;;;;;;;;;1015534;29;859;-16
2021/10/26 00:25:43;;;;;;;;;;;;;;;;;;1015445;29;918;-16
2021/10/26 00:26:15;;;;;;;;;;;;;;;;;;1015707;29;891;-16
2021/10/26 00:26:46;;;;;;;;;;;;;;;;;;1015170;29;851;-16
2021/10/26 00:27:17;;;;;;;;;;;;;;;;;;1015617;29;796;-16
2021/10/26 00:27:47;;;;;;;;;;;;;;;;;;1015046;29;1611;-16
2021/10/26 00:28:17;;;;;;;;;;;;;;;;;;1015354;29;1080;-16
2021/10/26 00:28:48;;;;;;;;;;;;;;;;;;1015612;29;1267;-16
2021/10/26 00:29:19;;;;;;;;;;;;;;;;;;1019221;29;910;-16
2021/10/26 00:29:51;;;;;;;;;;;;;;;;;;1019281;29;808;-16
2021/10/26 00:30:21;;;;;;;;;;;;;;;;;;1019483;29;824;-16
2021/10/26 00:30:52;;;;;;;;;;;;;;;;;;1018823;29;807;-16
2021/10/26 00:31:22;;;;;;;;;;;;;;;;;;1019056;29;839;-16
2021/10/26 00:31:54;;;;;;;;;;;;;;;;;;1018970;29;923;-16
2021/10/26 00:32:25;;;;;;;;;;;;;;;;;;1019324;29;910;-16
2021/10/26 00:32:56;;;;;;;;;;;;;;;;;;1022965;29;851;-17
2021/10/26 00:33:27;;;;;;;;;;;;;;;;;;1022886;29;829;-17
2021/10/26 00:33:58;;;;;;;;;;;;;;;;;;1022814;29;882;-16
2021/10/26 00:34:28;;;;;;;;;;;;;;;;;;1019357;29;764;-16
2021/10/26 00:34:58;;;;;;;;;;;;;;;;;;1019334;29;807;-17
2021/10/26 00:35:29;;;;;;;;;;;;;;;;;;1019373;29;839;-16
2021/10/26 00:35:59;;;;;;;;;;;;;;;;;;1018873;29;1395;-16
2021/10/26 00:36:30;;;;;;;;;;;;;;;;;;1014713;29;1143;-16
2021/10/26 00:37:01;;;;;;;;;;;;;;;;;;1014777;29;1103;-16
2021/10/26 00:37:32;;;;;;;;;;;;;;;;;;1010605;29;1899;-16
2021/10/26 00:38:02;;;;;;;;;;;;;;;;;;1010855;29;887;-16
2021/10/26 00:38:33;;;;;;;;;;;;;;;;;;1014856;29;1561;-16
2021/10/26 00:39:04;;;;;;;;;;;;;;;;;;1014973;29;1249;-16
2021/10/26 00:39:35;;;;;;;;;;;;;;;;;;1015029;29;1127;-16
2021/10/26 00:40:07;;;;;;;;;;;;;;;;;;1011339;29;1308;-16
2021/10/26 00:40:37;;;;;;;;;;;;;;;;;;1015416;29;888;-16
2021/10/26 00:41:08;;;;;;;;;;;;;;;;;;1019089;29;808;-16
2021/10/26 00:41:38;;;;;;;;;;;;;;;;;;1018910;29;946;-16
2021/10/26 00:42:10;;;;;;;;;;;;;;;;;;1019022;29;1182;-16
2021/10/26 00:42:41;;;;;;;;;;;;;;;;;;1018900;29;839;-16
2021/10/26 00:43:11;;;;;;;;;;;;;;;;;;1019110;29;891;-16
2021/10/26 00:43:42;;;;;;;;;;;;;;;;;;1018857;29;1166;-16
2021/10/26 00:44:12;;;;;;;;;;;;;;;;;;1014976;29;1356;-16
2021/10/26 00:44:43;;;;;;;;;;;;;;;;;;1014983;29;1155;-16
2021/10/26 00:45:14;;;;;;;;;;;;;;;;;;1018936;29;1713;-17
2021/10/26 00:45:44;;;;;;;;;;;;;;;;;;1014854;29;1950;-17
2021/10/26 00:46:30;;;;;;;;;;;;;;;;;;1015483;29;1522;-17
2021/10/26 00:47:01;;;;;;;;;;;;;;;;;;1012952;29;1372;-16
2021/10/26 00:47:31;;;;;;;;;;;;;;;;;;1017162;29;1485;-16
2021/10/26 00:48:01;;;;;;;;;;;;;;;;;;1018686;29;781;-17
2021/10/26 00:48:35;;;;;;;;;;;;;;;;;;1018841;29;2026;-16
2021/10/26 00:49:10;;;;;;;;;;;;;;;;;;1018927;29;815;-17
2021/10/26 00:49:42;;;;;;;;;;;;;;;;;;1014944;29;1131;-17
2021/10/26 00:50:15;;;;;;;;;;;;;;;;;;1016294;29;1388;-16
2021/10/26 00:50:45;;;;;;;;;;;;;;;;;;1018753;29;1166;-16
2021/10/26 00:51:16;;;;;;;;;;;;;;;;;;1018752;29;1185;-16
2021/10/26 00:51:47;;;;;;;;;;;;;;;;;;1015259;29;1250;-16
2021/10/26 00:52:18;;;;;;;;;;;;;;;;;;1019249;29;890;-16
2021/10/26 00:52:50;;;;;;;;;;;;;;;;;;1018974;29;1189;-16
2021/10/26 00:53:21;;;;;;;;;;;;;;;;;;1014884;29;1453;-16
2021/10/26 00:53:53;;;;;;;;;;;;;;;;;;1015115;29;1394;-16
2021/10/26 00:54:26;;;;;;;;;;;;;;;;;;1015153;29;847;-16
2021/10/26 00:55:01;;;;;;;;;;;;;;;;;;1014616;29;856;-16
2021/10/26 00:55:32;;;;;;;;;;;;;;;;;;1013688;29;962;-16
2021/10/26 00:56:03;;;;;;;;;;;;;;;;;;1006780;29;1397;-16
2021/10/26 00:56:34;;;;;;;;;;;;;;;;;;1003728;29;1529;-17
2021/10/26 00:57:05;;;;;;;;;;;;;;;;;;1014958;29;756;-16
2021/10/26 00:57:36;;;;;;;;;;;;;;;;;;1015380;29;1976;-16
2021/10/26 00:58:09;;;;;;;;;;;;;;;;;;1015444;29;1193;-16
2021/10/26 00:58:40;;;;;;;;;;;;;;;;;;1014705;29;1151;-17
2021/10/26 00:59:10;;;;;;;;;;;;;;;;;;1015178;29;859;-16
2021/10/26 00:59:45;;;;;;;;;;;;;;;;;;1011552;29;1173;-16
2021/10/26 01:00:16;;;;;;;;;;;;;;;;;;1015988;29;800;-16
2021/10/26 01:00:47;;;;;;;;;;;;;;;;;;1019055;29;981;-16
2021/10/26 01:01:18;;;;;;;;;;;;;;;;;;1019022;29;1520;-16
2021/10/26 01:01:48;;;;;;;;;;;;;;;;;;1022985;29;1134;-16
2021/10/26 01:02:19;;;;;;;;;;;;;;;;;;1018811;29;1209;-16
2021/10/26 01:02:50;;;;;;;;;;;;;;;;;;1018951;29;756;-16
2021/10/26 01:03:28;;;;;;;;;;;;;;;;;;1018945;29;1322;-16
2021/10/26 01:04:00;;;;;;;;;;;;;;;;;;1014909;29;1350;-16
2021/10/26 01:04:30;;;;;;;;;;;;;;;;;;1011159;29;998;-16
2021/10/26 01:05:02;;;;;;;;;;;;;;;;;;1007336;29;1210;-16
2021/10/26 01:05:32;;;;;;;;;;;;;;;;;;1011217;29;982;-17
2021/10/26 01:06:03;;;;;;;;;;;;;;;;;;1011306;29;1667;-16
2021/10/26 01:06:34;;;;;;;;;;;;;;;;;;1015029;29;784;-17
2021/10/26 01:07:06;;;;;;;;;;;;;;;;;;1014873;29;1474;-16
2021/10/26 01:07:36;;;;;;;;;;;;;;;;;;1015325;29;867;-17
2021/10/26 01:08:07;;;;;;;;;;;;;;;;;;1014932;29;965;-16
2021/10/26 01:08:40;;;;;;;;;;;;;;;;;;1014659;29;1327;-16
2021/10/26 01:09:10;;;;;;;;;;;;;;;;;;1014909;29;876;-16
2021/10/26 01:09:41;;;;;;;;;;;;;;;;;;1015401;29;1178;-16
2021/10/26 01:10:11;;;;;;;;;;;;;;;;;;1015068;29;1166;-16
2021/10/26 01:10:44;;;;;;;;;;;;;;;;;;1018852;29;1176;-16
2021/10/26 01:11:15;;;;;;;;;;;;;;;;;;1018964;29;918;-16
2021/10/26 01:11:47;;;;;;;;;;;;;;;;;;1018805;29;1679;-16
2021/10/26 01:12:18;;;;;;;;;;;;;;;;;;1018822;29;1321;-16
2021/10/26 01:12:50;;;;;;;;;;;;;;;;;;1014758;29;1221;-16
2021/10/26 01:13:23;;;;;;;;;;;;;;;;;;1015276;29;811;-16
2021/10/26 01:13:54;;;;;;;;;;;;;;;;;;1014981;29;1491;-16
2021/10/26 01:14:26;;;;;;;;;;;;;;;;;;1011382;29;1544;-17
2021/10/26 01:15:03;;;;;;;;;;;;;;;;;;1014926;29;1396;-16
2021/10/26 01:15:35;;;;;;;;;;;;;;;;;;1016013;29;1003;-16
2021/10/26 01:16:25;;;;;;;;;;;;;;;;;;1022541;29;1701;-16
2021/10/26 01:17:01;;;;;;;;;;;;;;;;;;1019949;29;894;-17
2021/10/26 01:17:32;;;;;;;;;;;;;;;;;;1022686;29;1910;-17
2021/10/26 01:18:02;;;;;;;;;;;;;;;;;;1022739;29;1471;-16
2021/10/26 01:18:33;;;;;;;;;;;;;;;;;;1018734;29;1445;-17
2021/10/26 01:19:03;;;;;;;;;;;;;;;;;;1019373;29;1207;-16
2021/10/26 01:19:42;;;;;;;;;;;;;;;;;;1015378;29;1519;-16
2021/10/26 01:20:13;;;;;;;;;;;;;;;;;;1011668;29;1390;-16
2021/10/26 01:20:45;;;;;;;;;;;;;;;;;;1013045;29;946;-16
2021/10/26 01:21:16;;;;;;;;;;;;;;;;;;1016980;29;1653;-16
2021/10/26 01:21:46;;;;;;;;;;;;;;;;;;1016010;29;1634;-16
2021/10/26 01:22:18;;;;;;;;;;;;;;;;;;1019785;29;819;-16
2021/10/26 01:22:49;;;;;;;;;;;;;;;;;;1019630;29;1205;-16
2021/10/26 01:23:20;;;;;;;;;;;;;;;;;;1019965;29;1539;-16
2021/10/26 01:23:51;;;;;;;;;;;;;;;;;;1019523;29;1180;-16
2021/10/26 01:24:21;;;;;;;;;;;;;;;;;;1015609;29;1107;-16
2021/10/26 01:24:52;;;;;;;;;;;;;;;;;;1007970;29;1247;-16
2021/10/26 01:25:24;;;;;;;;;;;;;;;;;;1012100;29;1346;-16
2021/10/26 01:25:54;;;;;;;;;;;;;;;;;;1015987;29;894;-16
2021/10/26 01:26:25;;;;;;;;;;;;;;;;;;1019748;29;788;-16
2021/10/26 01:26:56;;;;;;;;;;;;;;;;;;1019745;29;899;-17
2021/10/26 01:27:26;;;;;;;;;;;;;;;;;;1019765;29;1480;-16
2021/10/26 01:28:00;;;;;;;;;;;;;;;;;;1019397;29;1346;-16
2021/10/26 01:28:30;;;;;;;;;;;;;;;;;;1019527;29;866;-16
2021/10/26 01:29:01;;;;;;;;;;;;;;;;;;1019762;29;1147;-16
2021/10/26 01:29:35;;;;;;;;;;;;;;;;;;1016227;29;1674;-16
2021/10/26 01:30:07;;;;;;;;;;;;;;;;;;1015721;29;1385;-16
2021/10/26 01:30:38;;;;;;;;;;;;;;;;;;1015796;29;1145;-16
2021/10/26 01:31:29;;;;;;;;;;;;;;;;;;1022648;29;1258;-16
2021/10/26 01:32:20;;;;;;;;;;;;;;;;;;1019487;29;1133;-16
2021/10/26 01:32:56;;;;;;;;;;;;;;;;;;1019563;29;1274;-17
2021/10/26 01:33:43;;;;;;;;;;;;;;;;;;1015825;29;1390;-17
2021/10/26 01:34:18;;;;;;;;;;;;;;;;;;1015331;29;1174;-16
2021/10/26 01:34:49;;;;;;;;;;;;;;;;;;1015826;29;969;-16
2021/10/26 01:35:20;;;;;;;;;;;;;;;;;;1019542;29;1464;-17
2021/10/26 01:35:51;;;;;;;;;;;;;;;;;;1019774;29;1020;-16
2021/10/26 01:36:22;;;;;;;;;;;;;;;;;;1019359;28;1144;-16
2021/10/26 01:36:56;;;;;;;;;;;;;;;;;;1019037;29;1576;-17
2021/10/26 01:37:29;;;;;;;;;;;;;;;;;;1019186;29;1923;-16
2021/10/26 01:38:01;;;;;;;;;;;;;;;;;;1015159;29;1767;-16
2021/10/26 01:38:32;;;;;;;;;;;;;;;;;;1016027;29;1193;-17
2021/10/26 01:39:02;;;;;;;;;;;;;;;;;;1019748;29;884;-16
2021/10/26 01:39:36;;;;;;;;;;;;;;;;;;1016248;29;1358;-17
2021/10/26 01:40:07;;;;;;;;;;;;;;;;;;1019659;28;1153;-17
2021/10/26 01:40:38;;;;;;;;;;;;;;;;;;1019590;29;787;-16
2021/10/26 01:41:08;;;;;;;;;;;;;;;;;;1019779;29;866;-17
2021/10/26 01:41:38;;;;;;;;;;;;;;;;;;1019662;29;1451;-17
2021/10/26 01:42:09;;;;;;;;;;;;;;;;;;1019490;29;1193;-16
2021/10/26 01:42:40;;;;;;;;;;;;;;;;;;1019731;29;1096;-16
2021/10/26 01:43:10;;;;;;;;;;;;;;;;;;1019468;29;1694;-16
2021/10/26 01:43:41;;;;;;;;;;;;;;;;;;1019664;29;1288;-16
2021/10/26 01:44:11;;;;;;;;;;;;;;;;;;1019630;29;815;-16
2021/10/26 01:44:47;;;;;;;;;;;;;;;;;;1023033;29;1096;-16
2021/10/26 01:45:25;;;;;;;;;;;;;;;;;;1021097;29;2419;-17
2021/10/26 01:46:00;;;;;;;;;;;;;;;;;;1018886;29;1311;-17
2021/10/26 01:46:38;;;;;;;;;;;;;;;;;;1016921;29;914;-16
2021/10/26 01:47:09;;;;;;;;;;;;;;;;;;1017218;29;1732;-16
2021/10/26 01:47:39;;;;;;;;;;;;;;;;;;1016499;29;1105;-16
2021/10/26 01:48:13;;;;;;;;;;;;;;;;;;1019438;29;1271;-16
2021/10/26 01:48:43;;;;;;;;;;;;;;;;;;1019578;29;791;-16
2021/10/26 01:49:14;;;;;;;;;;;;;;;;;;1019360;29;1250;-16
2021/10/26 01:49:44;;;;;;;;;;;;;;;;;;1019682;28;1107;-16
2021/10/26 01:50:16;;;;;;;;;;;;;;;;;;1015641;29;839;-16
2021/10/26 01:50:46;;;;;;;;;;;;;;;;;;1015981;29;874;-16
2021/10/26 01:51:17;;;;;;;;;;;;;;;;;;1019612;29;946;-16
2021/10/26 01:51:47;;;;;;;;;;;;;;;;;;1019671;29;1546;-15
2021/10/26 01:52:18;;;;;;;;;;;;;;;;;;1019573;28;1243;-17
2021/10/26 01:52:49;;;;;;;;;;;;;;;;;;1019408;29;1529;-16
2021/10/26 01:53:19;;;;;;;;;;;;;;;;;;1019214;28;1642;-16
2021/10/26 01:53:50;;;;;;;;;;;;;;;;;;1019838;29;1185;-16
2021/10/26 01:54:20;;;;;;;;;;;;;;;;;;1019369;29;1680;-16
2021/10/26 01:54:51;;;;;;;;;;;;;;;;;;1015710;29;1306;-16
2021/10/26 01:55:22;;;;;;;;;;;;;;;;;;1015479;29;1309;-16
2021/10/26 01:55:54;;;;;;;;;;;;;;;;;;1012057;29;968;-16
2021/10/26 01:56:26;;;;;;;;;;;;;;;;;;1012260;29;1355;-16
2021/10/26 01:57:22;;;;;;;;;;;;;;;;;;1014512;29;1930;-17
2021/10/26 01:58:03;;;;;;;;;;;;;;;;;;1019622;29;1363;-17
2021/10/26 01:58:53;;;;;;;;;;;;;;;;;;1019478;28;1066;-16
2021/10/26 01:59:26;;;;;;;;;;;;;;;;;;1019478;29;1182;-16
2021/10/26 01:59:57;;;;;;;;;;;;;;;;;;1022460;28;1179;-16
2021/10/26 02:00:28;;;;;;;;;;;;;;;;;;1019453;28;1389;-16
2021/10/26 02:00:59;;;;;;;;;;;;;;;;;;1015736;29;1418;-17
2021/10/26 02:01:30;;;;;;;;;;;;;;;;;;1011484;29;1276;-16
2021/10/26 02:02:01;;;;;;;;;;;;;;;;;;1011651;29;1345;-16
2021/10/26 02:02:37;;;;;;;;;;;;;;;;;;1019005;29;1561;-16
2021/10/26 02:03:07;;;;;;;;;;;;;;;;;;1016115;29;1354;-16
2021/10/26 02:03:38;;;;;;;;;;;;;;;;;;1015226;29;1188;-16
2021/10/26 02:04:08;;;;;;;;;;;;;;;;;;1015548;29;1142;-16
2021/10/26 02:04:40;;;;;;;;;;;;;;;;;;1015772;29;1265;-17
2021/10/26 02:05:10;;;;;;;;;;;;;;;;;;1015726;29;1357;-16
2021/10/26 02:05:41;;;;;;;;;;;;;;;;;;1019440;28;1235;-16
2021/10/26 02:06:11;;;;;;;;;;;;;;;;;;1015510;29;1170;-16
2021/10/26 02:06:42;;;;;;;;;;;;;;;;;;1015525;29;1254;-16
2021/10/26 02:07:13;;;;;;;;;;;;;;;;;;1019471;29;807;-16
2021/10/26 02:07:48;;;;;;;;;;;;;;;;;;1018828;29;1554;-16
2021/10/26 02:08:18;;;;;;;;;;;;;;;;;;1015030;29;2393;-16
2021/10/26 02:08:48;;;;;;;;;;;;;;;;;;1015099;29;1247;-16
2021/10/26 02:09:19;;;;;;;;;;;;;;;;;;1011126;29;1412;-16
2021/10/26 02:09:50;;;;;;;;;;;;;;;;;;1015565;29;1188;-16
2021/10/26 02:10:20;;;;;;;;;;;;;;;;;;1015566;29;1419;-16
2021/10/26 02:10:51;;;;;;;;;;;;;;;;;;1015617;29;804;-16
2021/10/26 02:11:21;;;;;;;;;;;;;;;;;;1019490;29;1099;-16
2021/10/26 02:11:52;;;;;;;;;;;;;;;;;;1015554;29;1230;-16
2021/10/26 02:12:23;;;;;;;;;;;;;;;;;;1015418;29;1142;-16
2021/10/26 02:12:57;;;;;;;;;;;;;;;;;;1015608;29;1315;-16
2021/10/26 02:13:27;;;;;;;;;;;;;;;;;;1016081;29;863;-16
2021/10/26 02:13:59;;;;;;;;;;;;;;;;;;1019505;29;1474;-16
2021/10/26 02:14:29;;;;;;;;;;;;;;;;;;1015380;29;1177;-16
2021/10/26 02:15:01;;;;;;;;;;;;;;;;;;1015937;29;1244;-17
2021/10/26 02:15:32;;;;;;;;;;;;;;;;;;1015513;29;1153;-17
2021/10/26 02:16:03;;;;;;;;;;;;;;;;;;1015818;29;1268;-16
2021/10/26 02:16:34;;;;;;;;;;;;;;;;;;1015430;29;1197;-16
2021/10/26 02:17:07;;;;;;;;;;;;;;;;;;1023559;28;1432;-16
2021/10/26 02:17:38;;;;;;;;;;;;;;;;;;1018310;29;1982;-16
2021/10/26 02:18:11;;;;;;;;;;;;;;;;;;1019897;29;1394;-16
2021/10/26 02:18:42;;;;;;;;;;;;;;;;;;1017181;29;1347;-17
2021/10/26 02:19:15;;;;;;;;;;;;;;;;;;1012608;29;918;-16
2021/10/26 02:19:46;;;;;;;;;;;;;;;;;;1019335;28;1252;-16
2021/10/26 02:20:16;;;;;;;;;;;;;;;;;;1015914;29;1435;-16
2021/10/26 02:20:47;;;;;;;;;;;;;;;;;;1019383;29;938;-16
2021/10/26 02:21:19;;;;;;;;;;;;;;;;;;1015416;29;1193;-16
2021/10/26 02:21:50;;;;;;;;;;;;;;;;;;1015833;29;970;-16
2021/10/26 02:22:23;;;;;;;;;;;;;;;;;;1019421;28;1299;-16
2021/10/26 02:22:54;;;;;;;;;;;;;;;;;;1015743;29;1130;-16
2021/10/26 02:23:26;;;;;;;;;;;;;;;;;;1015568;29;1161;-16
2021/10/26 02:23:56;;;;;;;;;;;;;;;;;;1014968;29;1372;-16
2021/10/26 02:24:27;;;;;;;;;;;;;;;;;;1015822;29;1682;-17
2021/10/26 02:24:57;;;;;;;;;;;;;;;;;;1015389;29;1154;-16
2021/10/26 02:25:27;;;;;;;;;;;;;;;;;;1015454;29;1206;-16
2021/10/26 02:25:58;;;;;;;;;;;;;;;;;;1019369;28;1177;-16
2021/10/26 02:26:28;;;;;;;;;;;;;;;;;;1015518;29;1359;-16
2021/10/26 02:26:59;;;;;;;;;;;;;;;;;;1015377;29;1188;-17
2021/10/26 02:27:31;;;;;;;;;;;;;;;;;;1014920;29;1215;-16
2021/10/26 02:28:02;;;;;;;;;;;;;;;;;;1018862;29;1654;-16
2021/10/26 02:28:33;;;;;;;;;;;;;;;;;;1023142;28;1357;-16
2021/10/26 02:29:04;;;;;;;;;;;;;;;;;;1022591;29;1252;-16
2021/10/26 02:29:37;;;;;;;;;;;;;;;;;;1021377;28;1345;-16
2021/10/26 02:30:11;;;;;;;;;;;;;;;;;;1015382;29;1382;-16
2021/10/26 02:30:41;;;;;;;;;;;;;;;;;;1015885;29;1610;-16
2021/10/26 02:31:12;;;;;;;;;;;;;;;;;;1015389;29;1470;-16
2021/10/26 02:31:43;;;;;;;;;;;;;;;;;;1011348;29;1175;-16
2021/10/26 02:32:14;;;;;;;;;;;;;;;;;;1014981;29;1236;-16
2021/10/26 02:32:45;;;;;;;;;;;;;;;;;;1011188;29;1226;-16
2021/10/26 02:33:17;;;;;;;;;;;;;;;;;;1011441;29;805;-16
2021/10/26 02:33:48;;;;;;;;;;;;;;;;;;1015340;29;1009;-17
2021/10/26 02:34:19;;;;;;;;;;;;;;;;;;1015371;29;1101;-17
2021/10/26 02:34:49;;;;;;;;;;;;;;;;;;1019084;29;863;-16
2021/10/26 02:35:19;;;;;;;;;;;;;;;;;;1019022;29;1558;-16
2021/10/26 02:35:50;;;;;;;;;;;;;;;;;;1019219;29;1588;-16
2021/10/26 02:36:20;;;;;;;;;;;;;;;;;;1019532;29;1177;-16
2021/10/26 02:36:51;;;;;;;;;;;;;;;;;;1019382;29;1173;-16
2021/10/26 02:37:22;;;;;;;;;;;;;;;;;;1019201;29;2679;-16
2021/10/26 02:37:52;;;;;;;;;;;;;;;;;;1015081;29;1274;-16
2021/10/26 02:38:24;;;;;;;;;;;;;;;;;;1014939;29;1072;-17
2021/10/26 02:38:54;;;;;;;;;;;;;;;;;;1011213;29;1362;-16
2021/10/26 02:39:25;;;;;;;;;;;;;;;;;;1015423;29;848;-16
2021/10/26 02:39:56;;;;;;;;;;;;;;;;;;1014946;29;1296;-16
2021/10/26 02:40:26;;;;;;;;;;;;;;;;;;1011775;29;1175;-16
2021/10/26 02:40:57;;;;;;;;;;;;;;;;;;1015094;29;1403;-17
2021/10/26 02:41:28;;;;;;;;;;;;;;;;;;1019183;29;1287;-16
2021/10/26 02:41:59;;;;;;;;;;;;;;;;;;1015328;29;1124;-16
2021/10/26 02:42:31;;;;;;;;;;;;;;;;;;1015648;29;1240;-17
2021/10/26 02:43:01;;;;;;;;;;;;;;;;;;1019269;29;1390;-16
2021/10/26 02:43:31;;;;;;;;;;;;;;;;;;1011630;29;1142;-17
2021/10/26 02:44:02;;;;;;;;;;;;;;;;;;1019376;29;1206;-16
2021/10/26 02:44:33;;;;;;;;;;;;;;;;;;1015348;29;1183;-16
2021/10/26 02:45:05;;;;;;;;;;;;;;;;;;1015680;29;1321;-16
2021/10/26 02:45:36;;;;;;;;;;;;;;;;;;1019320;29;858;-17
2021/10/26 02:46:10;;;;;;;;;;;;;;;;;;1019292;29;1626;-16
2021/10/26 02:46:40;;;;;;;;;;;;;;;;;;1019351;29;839;-17
2021/10/26 02:47:11;;;;;;;;;;;;;;;;;;1015423;29;1183;-17
2021/10/26 02:47:41;;;;;;;;;;;;;;;;;;1015372;29;855;-16
2021/10/26 02:48:11;;;;;;;;;;;;;;;;;;1019347;29;768;-17
2021/10/26 02:48:42;;;;;;;;;;;;;;;;;;1015276;29;1344;-17
2021/10/26 02:49:14;;;;;;;;;;;;;;;;;;1019294;29;792;-17
2021/10/26 02:49:45;;;;;;;;;;;;;;;;;;1019261;29;1442;-16
2021/10/26 02:50:16;;;;;;;;;;;;;;;;;;1015183;29;1579;-16
2021/10/26 02:50:47;;;;;;;;;;;;;;;;;;1015408;29;996;-17
2021/10/26 02:51:17;;;;;;;;;;;;;;;;;;1015493;29;1050;-16
2021/10/26 02:51:48;;;;;;;;;;;;;;;;;;1019532;29;1028;-17
2021/10/26 02:52:19;;;;;;;;;;;;;;;;;;1019199;29;1472;-16
2021/10/26 02:52:50;;;;;;;;;;;;;;;;;;1015345;29;1308;-16
2021/10/26 02:53:20;;;;;;;;;;;;;;;;;;1015359;29;1683;-16
2021/10/26 02:53:50;;;;;;;;;;;;;;;;;;1015667;29;997;-16
2021/10/26 02:54:21;;;;;;;;;;;;;;;;;;1019256;29;938;-16
2021/10/26 02:54:51;;;;;;;;;;;;;;;;;;1019288;29;1402;-16
2021/10/26 02:55:21;;;;;;;;;;;;;;;;;;1019365;29;958;-16
2021/10/26 02:55:52;;;;;;;;;;;;;;;;;;1019193;29;1573;-16
2021/10/26 02:56:23;;;;;;;;;;;;;;;;;;1015481;29;1409;-16
2021/10/26 02:56:53;;;;;;;;;;;;;;;;;;1015318;29;1166;-16
2021/10/26 02:57:24;;;;;;;;;;;;;;;;;;1011426;29;1918;-16
2021/10/26 02:57:55;;;;;;;;;;;;;;;;;;1011537;29;1352;-16
2021/10/26 02:58:27;;;;;;;;;;;;;;;;;;1011531;29;1322;-16
2021/10/26 02:58:58;;;;;;;;;;;;;;;;;;1015604;29;1214;-17
2021/10/26 02:59:29;;;;;;;;;;;;;;;;;;1015151;29;1345;-16
2021/10/26 02:59:59;;;;;;;;;;;;;;;;;;1015498;29;1312;-16
2021/10/26 03:00:30;;;;;;;;;;;;;;;;;;1015245;29;1348;-16
2021/10/26 03:01:07;;;;;;;;;;;;;;;;;;1012225;29;1495;-16
2021/10/26 03:01:39;;;;;;;;;;;;;;;;;;1011385;29;1498;-16
2021/10/26 03:02:10;;;;;;;;;;;;;;;;;;1012565;29;831;-16
2021/10/26 03:02:40;;;;;;;;;;;;;;;;;;1015502;29;1158;-17
2021/10/26 03:03:12;;;;;;;;;;;;;;;;;;1019031;29;1510;-16
2021/10/26 03:03:43;;;;;;;;;;;;;;;;;;1011319;29;1319;-16
2021/10/26 03:04:13;;;;;;;;;;;;;;;;;;1011770;29;1428;-17
2021/10/26 03:04:44;;;;;;;;;;;;;;;;;;1015474;29;1144;-16
2021/10/26 03:05:14;;;;;;;;;;;;;;;;;;1015299;29;859;-16
2021/10/26 03:05:45;;;;;;;;;;;;;;;;;;1019376;29;891;-17
2021/10/26 03:06:16;;;;;;;;;;;;;;;;;;1015398;29;1460;-17
2021/10/26 03:06:47;;;;;;;;;;;;;;;;;;1015395;29;1360;-16
2021/10/26 03:07:18;;;;;;;;;;;;;;;;;;1015374;29;1415;-16
2021/10/26 03:07:48;;;;;;;;;;;;;;;;;;1011398;29;1326;-16
2021/10/26 03:08:18;;;;;;;;;;;;;;;;;;1015343;29;946;-16
2021/10/26 03:08:49;;;;;;;;;;;;;;;;;;1014959;29;1175;-16
2021/10/26 03:09:31;;;;;;;;;;;;;;;;;;1019241;29;1410;-18
2021/10/26 03:10:02;;;;;;;;;;;;;;;;;;1007219;29;1075;-16
2021/10/26 03:10:33;;;;;;;;;;;;;;;;;;1003233;29;1198;-17
2021/10/26 03:11:03;;;;;;;;;;;;;;;;;;1003617;29;860;-17
2021/10/26 03:11:33;;;;;;;;;;;;;;;;;;1007381;29;1400;-16
2021/10/26 03:12:04;;;;;;;;;;;;;;;;;;1015284;29;1156;-16
2021/10/26 03:12:37;;;;;;;;;;;;;;;;;;1019151;29;1206;-16
2021/10/26 03:13:07;;;;;;;;;;;;;;;;;;1019076;29;1185;-16
2021/10/26 03:13:37;;;;;;;;;;;;;;;;;;1015324;29;1334;-16
2021/10/26 03:14:08;;;;;;;;;;;;;;;;;;1015326;29;1314;-16
2021/10/26 03:14:39;;;;;;;;;;;;;;;;;;1007101;29;1144;-17
2021/10/26 03:15:11;;;;;;;;;;;;;;;;;;1006809;29;1342;-17
2021/10/26 03:15:41;;;;;;;;;;;;;;;;;;1007530;29;895;-16
2021/10/26 03:16:18;;;;;;;;;;;;;;;;;;1014431;29;836;-16
2021/10/26 03:16:48;;;;;;;;;;;;;;;;;;1018896;29;1510;-16
2021/10/26 03:17:19;;;;;;;;;;;;;;;;;;1019025;29;1942;-16
2021/10/26 03:18:06;;;;;;;;;;;;;;;;;;1019143;29;1015;-16
2021/10/26 03:18:40;;;;;;;;;;;;;;;;;;1015118;29;1193;-16
2021/10/26 03:19:10;;;;;;;;;;;;;;;;;;1017937;29;788;-16
2021/10/26 03:19:42;;;;;;;;;;;;;;;;;;1015252;29;1585;-16
2021/10/26 03:20:13;;;;;;;;;;;;;;;;;;1015536;29;902;-16
2021/10/26 03:20:43;;;;;;;;;;;;;;;;;;1015310;29;1320;-16
2021/10/26 03:21:14;;;;;;;;;;;;;;;;;;1015188;29;958;-16
2021/10/26 03:21:45;;;;;;;;;;;;;;;;;;1015302;29;1544;-16
2021/10/26 03:22:16;;;;;;;;;;;;;;;;;;1015359;29;1377;-17
2021/10/26 03:22:46;;;;;;;;;;;;;;;;;;1015201;29;1174;-16
2021/10/26 03:23:17;;;;;;;;;;;;;;;;;;1015548;29;832;-16
2021/10/26 03:23:48;;;;;;;;;;;;;;;;;;1018868;29;1318;-16
2021/10/26 03:24:19;;;;;;;;;;;;;;;;;;1015665;29;785;-16
2021/10/26 03:24:50;;;;;;;;;;;;;;;;;;1015081;29;923;-17
2021/10/26 03:25:21;;;;;;;;;;;;;;;;;;1015472;29;1452;-16
2021/10/26 03:25:52;;;;;;;;;;;;;;;;;;1010823;29;1506;-16
2021/10/26 03:26:22;;;;;;;;;;;;;;;;;;1007258;29;1154;-16
2021/10/26 03:26:54;;;;;;;;;;;;;;;;;;1007096;29;1163;-16
2021/10/26 03:27:25;;;;;;;;;;;;;;;;;;1007694;29;1668;-16
2021/10/26 03:27:56;;;;;;;;;;;;;;;;;;1015439;29;1230;-16
2021/10/26 03:28:27;;;;;;;;;;;;;;;;;;1019236;29;871;-16
2021/10/26 03:28:58;;;;;;;;;;;;;;;;;;1015033;29;1328;-16
2021/10/26 03:29:28;;;;;;;;;;;;;;;;;;1015582;29;1113;-16
2021/10/26 03:29:59;;;;;;;;;;;;;;;;;;1015195;29;1210;-16
2021/10/26 03:30:29;;;;;;;;;;;;;;;;;;1015289;29;934;-16
2021/10/26 03:31:11;;;;;;;;;;;;;;;;;;1015210;29;1312;-16
2021/10/26 03:32:02;;;;;;;;;;;;;;;;;;1018906;28;1283;-17
2021/10/26 03:32:55;;;;;;;;;;;;;;;;;;1020849;29;1199;-16
2021/10/26 03:33:49;;;;;;;;;;;;;;;;;;1018946;29;1345;-16
2021/10/26 03:34:19;;;;;;;;;;;;;;;;;;1015282;29;1221;-16
2021/10/26 03:34:50;;;;;;;;;;;;;;;;;;1015144;29;1280;-16
2021/10/26 03:35:20;;;;;;;;;;;;;;;;;;1015373;29;815;-17
2021/10/26 03:35:53;;;;;;;;;;;;;;;;;;1018992;29;1407;-16
2021/10/26 03:36:23;;;;;;;;;;;;;;;;;;1019435;29;1164;-16
2021/10/26 03:36:53;;;;;;;;;;;;;;;;;;1018934;29;1566;-16
2021/10/26 03:37:24;;;;;;;;;;;;;;;;;;1018936;29;1911;-17
2021/10/26 03:37:55;;;;;;;;;;;;;;;;;;1019148;29;839;-16
2021/10/26 03:38:26;;;;;;;;;;;;;;;;;;1019182;29;792;-16
2021/10/26 03:38:57;;;;;;;;;;;;;;;;;;1018911;29;1299;-16
2021/10/26 03:39:27;;;;;;;;;;;;;;;;;;1019377;29;874;-16
2021/10/26 03:39:58;;;;;;;;;;;;;;;;;;1015028;29;1410;-16
2021/10/26 03:40:31;;;;;;;;;;;;;;;;;;1015205;29;1409;-17
2021/10/26 03:41:02;;;;;;;;;;;;;;;;;;1011414;29;1557;-16
2021/10/26 03:41:33;;;;;;;;;;;;;;;;;;1015179;29;1189;-17